Time;durP1;ratioP1;P1;durP2;ratioP2;P2;SDS_P1;SDS_P2;PMS_P1;PMS_P2;Temp;Humidity;BMP_temperature;BMP_pressure;BME280_temperature;BME280_humidity;BME280_pressure;Samples;Min_cycle;Max_cycle;Signal;HPM_P1;HPM_P2
2022/09/14 14:36:23;;;;;;;0.32;0.15;;;22.50;1.00;;;;;;6198029;22;20401;-89
2022/09/14 14:39:05;;;;;;;3.20;1.03;;;22.50;1.00;;;;;;6162195;23;20023;-90
2022/09/14 14:41:51;;;;;;;1.30;0.30;;;22.50;1.00;;;;;;6138977;23;20372;-88
2022/09/14 14:44:27;;;;;;;5.20;0.55;;;22.40;1.00;;;;;;6160266;23;20063;-88
2022/09/14 14:46:59;;;;;;;1.77;0.43;;;22.50;1.00;;;;;;6187017;23;20467;-88
2022/09/14 14:49:43;;;;;;;1.38;0.30;;;22.60;1.00;;;;;;6160391;23;20464;-89
2022/09/14 14:52:15;;;;;;;1.00;0.30;;;22.80;1.00;;;;;;6160201;23;20028;-89
2022/09/14 14:54:47;;;;;;;2.58;0.32;;;22.80;1.00;;;;;;6160017;23;20025;-89
2022/09/14 14:57:22;;;;;;;1.90;0.40;;;22.80;1.00;;;;;;6186188;23;20064;-88
2022/09/14 14:59:51;;;;;;;2.05;0.30;;;22.90;1.00;;;;;;6160709;23;20024;-89
2022/09/14 15:02:22;;;;;;;1.13;0.20;;;23.00;1.00;;;;;;6160041;23;20025;-89
2022/09/14 15:04:58;;;;;;;1.13;0.30;;;23.00;1.00;;;;;;6160096;23;20017;-89
2022/09/14 15:07:43;;;;;;;2.97;0.75;;;23.00;1.00;;;;;;6163182;23;20009;-89
2022/09/14 15:10:22;;;;;;;1.10;0.60;;;23.10;1.00;;;;;;6186889;23;20357;-89
2022/09/14 15:12:51;;;;;;;1.30;0.22;;;23.20;1.00;;;;;;6161791;23;20072;-89
2022/09/14 15:15:26;;;;;;;0.80;0.30;;;23.40;1.00;;;;;;6137793;23;20085;-89
2022/09/14 15:18:01;;;;;;;1.67;0.22;;;23.40;1.00;;;;;;6200053;22;20035;-88
2022/09/14 15:20:30;;;;;;;0.73;0.30;;;23.60;1.00;;;;;;6187204;23;19998;-89
2022/09/14 15:23:01;;;;;;;1.13;0.20;;;23.70;1.00;;;;;;6213176;22;20057;-88
2022/09/14 15:25:39;;;;;;;1.02;0.30;;;23.90;1.00;;;;;;6164253;22;19997;-88
2022/09/14 15:28:10;;;;;;;0.65;0.50;;;24.00;1.00;;;;;;6213492;22;20001;-89
2022/09/14 15:30:50;;;;;;;0.40;0.20;;;24.10;1.00;;;;;;6179367;23;20068;-89
2022/09/14 15:33:19;;;;;;;0.40;0.20;;;24.10;1.00;;;;;;6160958;23;20021;-88
2022/09/14 15:36:00;;;;;;;1.88;0.40;;;24.10;1.00;;;;;;6136465;23;20043;-89
2022/09/14 15:38:41;;;;;;;0.50;0.20;;;23.90;1.00;;;;;;6136665;23;20017;-89
2022/09/14 15:41:49;;;;;;;1.33;0.40;;;23.80;1.00;;;;;;6139663;23;20013;-89
2022/09/14 15:44:29;;;;;;;0.45;0.17;;;23.60;1.00;;;;;;6186256;23;20068;-88
2022/09/14 15:47:37;;;;;;;0.57;0.30;;;23.50;1.00;;;;;;6166665;23;20022;-89
2022/09/14 15:50:31;;;;;;;1.83;0.32;;;23.40;1.00;;;;;;6186064;23;20088;-88
2022/09/14 15:53:24;;;;;;;0.47;0.25;;;23.30;1.00;;;;;;6137356;23;20036;-89
2022/09/14 15:55:52;;;;;;;1.00;0.35;;;23.20;1.00;;;;;;6160337;23;20020;-89
2022/09/14 16:06:04;;;;;;;0.47;0.20;;;22.90;1.00;;;;;;6185887;22;20129;-92
2022/09/14 16:08:31;;;;;;;0.73;0.35;;;22.70;1.00;;;;;;6189647;23;20021;-88
2022/09/14 16:11:17;;;;;;;1.70;0.40;;;22.70;1.00;;;;;;6188082;23;20048;-91
2022/09/14 16:17:33;;;;;;;1.70;0.82;;;22.40;1.00;;;;;;6181595;23;20017;-89
2022/09/14 16:20:57;;;;;;;1.20;0.20;;;22.40;1.00;;;;;;6151146;23;20484;-89
2022/09/14 16:24:03;;;;;;;;;;;;;;;;;;;;;
2022/09/14 16:26:56;;;;;;;0.63;0.30;;;22.20;1.00;;;;;;6247231;22;20028;-88
2022/09/14 16:29:33;;;;;;;1.23;0.40;;;22.10;1.00;;;;;;6220714;23;20051;-89
2022/09/14 16:32:06;;;;;;;1.65;0.20;;;22.00;1.00;;;;;;6221153;23;20089;-88
2022/09/14 16:34:33;;;;;;;1.02;0.20;;;21.90;1.00;;;;;;6197239;23;20012;-88
2022/09/14 16:37:03;;;;;;;1.05;0.20;;;21.90;1.00;;;;;;6221911;23;20440;-88
2022/09/14 16:39:33;;;;;;;4.13;0.47;;;21.80;1.00;;;;;;6221438;23;20016;-89
2022/09/14 16:43:01;;;;;;;1.20;0.20;;;21.80;1.00;;;;;;6223571;23;20626;-90
2022/09/14 16:46:08;;;;;;;0.93;0.30;;;21.60;1.00;;;;;;6221159;23;20038;-88
2022/09/14 16:48:45;;;;;;;1.17;0.30;;;21.60;1.00;;;;;;6247674;23;20099;-88
2022/09/14 16:51:42;;;;;;;1.10;0.35;;;21.50;1.00;;;;;;6221374;23;20020;-89
2022/09/14 16:54:37;;;;;;;0.52;0.40;;;21.50;1.00;;;;;;6248137;22;20409;-87
2022/09/14 16:57:07;;;;;;;0.80;0.40;;;21.50;1.00;;;;;;6247556;23;20012;-88
2022/09/14 16:59:42;;;;;;;0.77;0.30;;;21.40;1.00;;;;;;6221810;23;20050;-90
2022/09/14 17:02:19;;;;;;;0.70;0.20;;;21.40;1.00;;;;;;6247862;23;20015;-89
2022/09/14 17:04:49;;;;;;;1.58;0.30;;;21.30;1.00;;;;;;6221316;23;20020;-88
2022/09/14 17:07:21;;;;;;;0.65;0.15;;;21.30;1.00;;;;;;6221025;23;20043;-88
2022/09/14 17:09:48;;;;;;;1.60;0.30;;;21.30;1.00;;;;;;6220533;23;20028;-88
2022/09/14 17:12:17;;;;;;;0.75;0.28;;;21.20;1.00;;;;;;6221531;23;20016;-88
2022/09/14 17:14:47;;;;;;;0.90;0.20;;;21.20;1.00;;;;;;6221034;23;20436;-87
